createdAt,value
2023-02-19T00:02:06.762Z,91.43
2023-02-19T00:04:35.433Z,91.58
2023-02-19T00:07:03.971Z,91.64
2023-02-19T00:09:32.514Z,91.52
2023-02-19T00:12:01.159Z,90.87
2023-02-19T00:14:31.058Z,91.41
2023-02-19T00:16:59.362Z,91.04
2023-02-19T00:19:29.025Z,91.53
2023-02-19T00:21:57.601Z,91.77
2023-02-19T00:24:26.164Z,92.04
2023-02-19T00:26:54.782Z,92.35
2023-02-19T00:29:24.784Z,92.94
2023-02-19T00:31:58.032Z,93.01
2023-02-19T00:34:26.516Z,92.61
2023-02-19T00:36:54.971Z,92.19
2023-02-19T00:39:23.471Z,92.41
2023-02-19T00:41:51.965Z,92.44
2023-02-19T00:44:20.917Z,92.64
2023-02-19T00:46:50.132Z,93.28
2023-02-19T00:49:23.359Z,93.09
2023-02-19T00:51:53.337Z,92.56
2023-02-19T00:54:22.566Z,93.11
2023-02-19T00:56:51.106Z,92.09
2023-02-19T00:59:19.811Z,91.91
2023-02-19T01:01:49.612Z,92.27
2023-02-19T01:04:20.455Z,92.43
2023-02-19T01:06:49.006Z,92.58
2023-02-19T01:09:17.601Z,92.20
2023-02-19T01:11:46.357Z,91.85
2023-02-19T01:14:14.916Z,92.51
2023-02-19T01:16:43.441Z,91.75
2023-02-19T01:19:11.943Z,91.92
2023-02-19T01:21:41.997Z,91.31
2023-02-19T01:24:11.677Z,91.21
2023-02-19T01:26:43.524Z,91.61
2023-02-19T01:29:12.098Z,91.57
2023-02-19T01:31:42.129Z,92.39
2023-02-19T01:34:12.797Z,92.75
2023-02-19T01:36:42.594Z,93.21
2023-02-19T01:39:11.631Z,92.79
2023-02-19T01:41:42.094Z,93.04
2023-02-19T01:44:44.202Z,93.32
2023-02-19T01:47:13.011Z,92.56
2023-02-19T01:49:48.738Z,92.27
2023-02-19T01:52:23.442Z,92.86
2023-02-19T01:54:54.344Z,93.45
2023-02-19T01:57:26.139Z,92.73
2023-02-19T01:59:59.615Z,93.25
2023-02-19T02:02:28.554Z,93.33
2023-02-19T02:04:58.098Z,94.19
2023-02-19T02:07:45.720Z,93.13
2023-02-19T02:10:24.086Z,93.25
2023-02-19T02:12:57.981Z,93.34
2023-02-19T02:15:35.269Z,93.70
2023-02-19T02:18:15.006Z,93.47
2023-02-19T02:21:03.621Z,92.75
2023-02-19T02:23:47.664Z,91.91
2023-02-19T02:26:48.267Z,89.45
2023-02-19T02:29:32.863Z,87.83
2023-02-19T02:32:07.752Z,86.96
2023-02-19T02:34:43.835Z,86.32
2023-02-19T02:37:13.285Z,85.92
2023-02-19T02:39:43.207Z,86.22
2023-02-19T02:42:25.779Z,85.32
2023-02-19T02:45:37.163Z,85.61
2023-02-19T02:48:26.902Z,85.04
2023-02-19T02:51:00.435Z,86.67
2023-02-19T02:53:55.913Z,87.03
2023-02-19T02:56:26.463Z,87.57
2023-02-19T02:58:58.006Z,88.70
2023-02-19T03:01:48.923Z,89.04
2023-02-19T03:04:25.394Z,89.40
2023-02-19T03:06:56.513Z,89.87
2023-02-19T03:09:31.820Z,90.47
2023-02-19T03:12:22.062Z,89.58
2023-02-19T03:15:12.380Z,90.06
2023-02-19T03:18:05.113Z,88.46
2023-02-19T03:20:37.741Z,88.10
2023-02-19T03:23:08.223Z,87.38
2023-02-19T03:25:56.604Z,86.18
2023-02-19T03:28:57.798Z,86.95
2023-02-19T03:31:31.111Z,86.80
2023-02-19T03:34:04.893Z,86.44
2023-02-19T03:36:39.091Z,86.97
2023-02-19T03:39:09.361Z,86.73
2023-02-19T03:41:49.920Z,88.74
2023-02-19T03:44:27.233Z,88.41
2023-02-19T03:47:04.356Z,87.34
2023-02-19T03:49:43.594Z,87.25
2023-02-19T03:52:17.658Z,88.45
2023-02-19T03:54:55.784Z,88.58
2023-02-19T03:57:34.744Z,88.30
2023-02-19T04:00:10.160Z,89.48
2023-02-19T04:02:47.071Z,89.35
2023-02-19T04:05:19.896Z,89.03
2023-02-19T04:07:52.806Z,90.36
2023-02-19T04:10:26.334Z,90.78
2023-02-19T04:13:01.525Z,91.85
2023-02-19T04:15:33.639Z,92.01
2023-02-19T04:18:07.007Z,93.56
2023-02-19T04:20:40.353Z,93.46
2023-02-19T04:23:10.483Z,92.65
2023-02-19T04:25:40.806Z,93.79
2023-02-19T04:28:10.237Z,93.45
2023-02-19T04:30:38.883Z,93.59
2023-02-19T04:33:07.408Z,94.30
2023-02-19T04:35:35.911Z,95.23
2023-02-19T04:38:05.974Z,95.65
2023-02-19T04:40:35.656Z,95.71
2023-02-19T04:43:04.217Z,95.16
2023-02-19T04:45:32.769Z,95.40
2023-02-19T04:48:01.322Z,95.45
2023-02-19T04:50:29.866Z,95.02
2023-02-19T04:52:58.502Z,94.98
2023-02-19T04:55:27.048Z,95.31
2023-02-19T04:57:56.891Z,95.25
2023-02-19T05:00:25.309Z,95.44
2023-02-19T05:02:53.822Z,95.74
2023-02-19T05:05:22.277Z,95.44
2023-02-19T05:07:50.873Z,95.55
2023-02-19T05:10:19.577Z,95.50
2023-02-19T05:12:48.035Z,95.82
2023-02-19T05:15:17.916Z,95.93
2023-02-19T05:17:46.197Z,95.80
2023-02-19T05:20:15.026Z,95.82
2023-02-19T05:22:43.436Z,96.51
2023-02-19T05:25:11.861Z,96.50
2023-02-19T05:27:40.338Z,96.27
2023-02-19T05:30:10.018Z,96.75
2023-02-19T05:32:40.201Z,96.61
2023-02-19T05:35:08.764Z,97.09
2023-02-19T05:37:37.189Z,96.72
2023-02-19T05:40:06.582Z,96.54
2023-02-19T05:42:35.025Z,96.80
2023-02-19T05:45:03.441Z,96.50
2023-02-19T05:47:31.947Z,95.71
2023-02-19T05:50:01.741Z,96.33
2023-02-19T05:52:33.938Z,95.64
2023-02-19T05:55:02.412Z,95.94
2023-02-19T05:57:31.022Z,96.20
2023-02-19T05:59:59.815Z,96.04
2023-02-19T06:02:28.293Z,96.39
2023-02-19T06:04:56.862Z,96.13
2023-02-19T06:07:26.712Z,95.71
2023-02-19T06:09:55.057Z,95.74
2023-02-19T06:12:23.526Z,96.72
2023-02-19T06:14:52.014Z,95.99
2023-02-19T06:17:20.597Z,95.83
2023-02-19T06:19:49.084Z,94.91
2023-02-19T06:22:17.936Z,95.23
2023-02-19T06:24:48.201Z,95.75
2023-02-19T06:27:17.409Z,95.84
2023-02-19T06:29:45.980Z,96.06
2023-02-19T06:32:14.480Z,95.48
2023-02-19T06:34:43.000Z,96.15
2023-02-19T06:37:11.590Z,96.13
2023-02-19T06:39:40.088Z,96.09
2023-02-19T06:42:09.928Z,95.83
2023-02-19T06:44:38.445Z,95.78
2023-02-19T06:47:06.999Z,95.01
2023-02-19T06:49:35.542Z,94.54
2023-02-19T06:52:04.170Z,94.81
2023-02-19T06:54:33.359Z,94.64
2023-02-19T06:57:01.824Z,94.40
2023-02-19T06:59:31.746Z,93.51
2023-02-19T07:02:00.175Z,93.61
2023-02-19T07:04:28.937Z,94.03
2023-02-19T07:06:57.562Z,91.75
2023-02-19T07:09:28.444Z,89.00
2023-02-19T07:11:56.954Z,88.81
2023-02-19T07:14:25.491Z,89.42
2023-02-19T07:16:55.346Z,89.19
2023-02-19T07:19:23.916Z,90.20
2023-02-19T07:21:52.413Z,89.72
2023-02-19T07:24:21.660Z,89.66
2023-02-19T07:26:50.171Z,89.56
2023-02-19T07:29:18.784Z,88.69
2023-02-19T07:31:47.533Z,89.21
2023-02-19T07:34:17.388Z,88.93
2023-02-19T07:36:45.966Z,87.90
2023-02-19T07:39:15.683Z,88.27
2023-02-19T07:41:44.375Z,86.69
2023-02-19T07:44:23.247Z,86.35
2023-02-19T07:46:51.847Z,86.68
2023-02-19T07:49:21.784Z,86.06
2023-02-19T07:51:50.335Z,86.40
2023-02-19T07:54:18.808Z,85.52
2023-02-19T07:56:47.338Z,85.67
2023-02-19T07:59:15.902Z,86.07
2023-02-19T08:02:01.924Z,85.55
2023-02-19T08:04:31.731Z,86.43
2023-02-19T08:07:00.291Z,86.85
2023-02-19T08:09:28.820Z,86.97
2023-02-19T08:12:15.075Z,87.03
2023-02-19T08:14:43.722Z,85.81
2023-02-19T08:17:12.295Z,86.69
2023-02-19T08:19:42.374Z,85.46
2023-02-19T08:22:10.927Z,83.62
2023-02-19T08:24:42.941Z,84.67
2023-02-19T08:27:11.522Z,84.73
2023-02-19T08:29:40.014Z,85.34
2023-02-19T08:32:08.560Z,85.42
2023-02-19T08:34:37.393Z,85.74
2023-02-19T08:37:07.224Z,85.06
2023-02-19T08:39:35.814Z,85.67
2023-02-19T08:42:04.545Z,85.21
2023-02-19T08:44:33.961Z,84.80
2023-02-19T08:47:02.564Z,84.58
2023-02-19T08:49:31.118Z,84.62
2023-02-19T08:51:59.881Z,85.04
2023-02-19T08:54:29.770Z,86.19
2023-02-19T08:56:59.141Z,85.31
2023-02-19T08:59:29.740Z,83.90
2023-02-19T09:01:59.368Z,84.51
2023-02-19T09:04:28.428Z,83.10
2023-02-19T09:06:56.966Z,81.83
2023-02-19T09:09:25.457Z,82.51
2023-02-19T09:11:55.290Z,85.04
2023-02-19T09:14:23.700Z,84.56
2023-02-19T09:16:52.195Z,84.51
2023-02-19T09:19:20.680Z,84.99
2023-02-19T09:21:49.162Z,85.53
2023-02-19T09:24:17.651Z,84.01
2023-02-19T09:26:46.096Z,83.95
2023-02-19T09:29:15.997Z,83.05
2023-02-19T09:31:44.522Z,81.95
2023-02-19T09:34:13.319Z,82.94
2023-02-19T09:36:42.073Z,82.26
2023-02-19T09:39:16.725Z,83.55
2023-02-19T09:41:47.751Z,82.19
2023-02-19T09:44:24.909Z,82.96
2023-02-19T09:46:54.980Z,81.85
2023-02-19T09:49:26.073Z,82.82
2023-02-19T09:51:59.578Z,83.38
2023-02-19T09:54:31.470Z,83.43
2023-02-19T09:57:03.394Z,83.70
2023-02-19T09:59:39.581Z,81.61
2023-02-19T10:02:13.088Z,81.70
2023-02-19T10:04:43.919Z,80.21
2023-02-19T10:07:14.387Z,80.15
2023-02-19T10:09:46.130Z,80.78
2023-02-19T10:12:17.341Z,79.72
2023-02-19T10:14:51.035Z,79.22
2023-02-19T10:17:23.452Z,78.52
2023-02-19T10:19:52.477Z,78.17
2023-02-19T10:22:21.746Z,76.94
2023-02-19T10:24:53.991Z,77.42
2023-02-19T10:27:22.714Z,77.06
2023-02-19T10:29:55.799Z,73.97
2023-02-19T10:32:26.617Z,73.28
2023-02-19T10:35:13.072Z,71.84
2023-02-19T10:37:46.425Z,72.54
2023-02-19T10:40:18.487Z,70.42
2023-02-19T10:42:48.661Z,70.33
2023-02-19T10:45:25.363Z,70.17
2023-02-19T10:47:54.562Z,69.94
2023-02-19T10:50:27.755Z,67.94
2023-02-19T10:52:58.752Z,68.02
2023-02-19T10:55:31.008Z,65.20
2023-02-19T10:58:16.316Z,65.51
2023-02-19T11:00:46.204Z,65.25
2023-02-19T11:03:15.946Z,65.33
2023-02-19T11:05:56.739Z,66.23
2023-02-19T11:08:25.609Z,67.27
2023-02-19T11:10:54.451Z,65.69
2023-02-19T11:13:32.338Z,65.46
2023-02-19T11:16:02.336Z,65.20
2023-02-19T11:18:32.961Z,66.24
2023-02-19T11:21:04.605Z,65.36
2023-02-19T11:23:37.265Z,65.60
2023-02-19T11:26:08.266Z,64.85
2023-02-19T11:28:39.653Z,64.54
2023-02-19T11:31:22.683Z,65.47
2023-02-19T11:33:57.017Z,65.24
2023-02-19T11:36:31.453Z,67.42
2023-02-19T11:39:06.937Z,66.74
2023-02-19T11:41:53.613Z,66.38
2023-02-19T11:44:34.125Z,66.65
2023-02-19T11:47:26.007Z,66.01
2023-02-19T11:50:02.319Z,66.92
2023-02-19T11:52:36.512Z,66.60
2023-02-19T11:55:14.984Z,66.81
2023-02-19T11:57:47.338Z,66.83
2023-02-19T12:00:27.220Z,66.10
2023-02-19T12:03:28.089Z,66.64
2023-02-19T12:06:10.858Z,66.69
2023-02-19T12:08:57.760Z,66.65
2023-02-19T12:12:04.892Z,66.57
2023-02-19T12:14:56.921Z,68.22
2023-02-19T12:17:44.815Z,67.83
2023-02-19T12:20:25.404Z,65.75
2023-02-19T12:23:09.646Z,65.46
2023-02-19T12:25:56.892Z,64.31
2023-02-19T12:28:54.734Z,63.97
2023-02-19T12:31:54.110Z,65.13
2023-02-19T12:34:36.775Z,63.75
2023-02-19T12:37:18.685Z,64.49
2023-02-19T12:39:59.151Z,64.44
2023-02-19T12:42:46.912Z,64.46
2023-02-19T12:45:21.134Z,65.68
2023-02-19T12:48:00.307Z,64.71
2023-02-19T12:50:30.466Z,65.07
2023-02-19T12:53:06.485Z,64.44
2023-02-19T12:55:41.432Z,64.51
2023-02-19T12:58:16.693Z,63.01
2023-02-19T13:00:50.599Z,62.77
2023-02-19T13:03:24.723Z,62.55
2023-02-19T13:05:59.591Z,62.02
2023-02-19T13:08:34.196Z,61.90
2023-02-19T13:11:10.244Z,62.35
2023-02-19T13:13:44.816Z,61.44
2023-02-19T13:16:18.862Z,60.54
2023-02-19T13:18:51.395Z,61.79
2023-02-19T13:21:36.513Z,62.45
2023-02-19T13:24:10.807Z,62.25
2023-02-19T13:27:08.543Z,61.89
2023-02-19T13:30:00.257Z,63.94
2023-02-19T13:32:48.682Z,63.18
2023-02-19T13:35:26.367Z,63.53
2023-02-19T13:37:56.589Z,63.09
2023-02-19T13:40:32.860Z,62.95
2023-02-19T13:43:06.091Z,63.89
2023-02-19T13:45:39.826Z,62.33
2023-02-19T13:48:25.573Z,61.69
2023-02-19T13:51:49.516Z,62.27
2023-02-19T13:54:27.203Z,61.50
2023-02-19T13:57:22.220Z,62.27
2023-02-19T13:59:52.813Z,63.91
2023-02-19T14:02:32.294Z,64.64
2023-02-19T14:05:03.534Z,63.38
2023-02-19T14:07:39.174Z,64.67
2023-02-19T14:10:13.969Z,64.46
2023-02-19T14:12:42.573Z,63.76
2023-02-19T14:15:44.752Z,63.10
2023-02-19T14:18:45.201Z,64.56
2023-02-19T14:21:18.322Z,64.09
2023-02-19T14:23:53.245Z,63.88
2023-02-19T14:26:23.120Z,64.37
2023-02-19T14:28:52.840Z,65.00
2023-02-19T14:31:30.980Z,66.73
2023-02-19T14:34:01.761Z,68.66
2023-02-19T14:36:44.103Z,69.39
2023-02-19T14:39:18.046Z,70.08
2023-02-19T14:41:49.629Z,70.22
2023-02-19T14:44:23.356Z,70.27
2023-02-19T14:47:04.850Z,70.25
2023-02-19T14:49:42.625Z,70.62
2023-02-19T14:52:19.893Z,71.08
2023-02-19T14:54:53.354Z,70.99
2023-02-19T14:57:25.055Z,71.90
2023-02-19T14:59:55.993Z,72.42
2023-02-19T15:02:27.122Z,72.88
2023-02-19T15:04:56.189Z,73.83
2023-02-19T15:07:27.612Z,75.32
2023-02-19T15:09:58.640Z,75.63
2023-02-19T15:12:33.478Z,76.29
2023-02-19T15:15:05.099Z,77.51
2023-02-19T15:17:41.520Z,77.33
2023-02-19T15:20:14.110Z,77.10
2023-02-19T15:22:42.845Z,79.05
2023-02-19T15:25:18.446Z,77.68
2023-02-19T15:27:47.322Z,78.71
2023-02-19T15:30:25.309Z,79.38
2023-02-19T15:32:56.937Z,78.02
2023-02-19T15:35:27.363Z,78.31
2023-02-19T15:37:56.415Z,78.24
2023-02-19T15:40:30.096Z,78.14
2023-02-19T15:43:00.151Z,77.13
2023-02-19T15:45:38.676Z,77.09
2023-02-19T15:48:14.100Z,77.31
2023-02-19T15:50:45.367Z,75.02
2023-02-19T15:53:17.658Z,72.73
2023-02-19T15:55:52.608Z,71.63
2023-02-19T15:58:27.654Z,71.41
2023-02-19T16:00:59.169Z,71.32
2023-02-19T16:03:30.934Z,71.71
2023-02-19T16:06:02.003Z,70.42
2023-02-19T16:08:32.687Z,70.42
2023-02-19T16:11:02.895Z,71.30
2023-02-19T16:13:33.264Z,72.24
2023-02-19T16:16:16.031Z,70.99
2023-02-19T16:18:52.108Z,71.82
2023-02-19T16:21:23.859Z,71.03
2023-02-19T16:23:59.239Z,70.67
2023-02-19T16:26:28.309Z,72.51
2023-02-19T16:28:57.937Z,72.42
2023-02-19T16:31:26.603Z,72.50
2023-02-19T16:33:58.280Z,72.19
2023-02-19T16:36:37.294Z,72.31
2023-02-19T16:39:21.699Z,72.88
2023-02-19T16:42:17.875Z,72.92
2023-02-19T16:44:48.114Z,73.38
2023-02-19T16:47:26.204Z,72.85
2023-02-19T16:49:56.662Z,72.56
2023-02-19T16:52:25.257Z,73.09
2023-02-19T16:54:54.047Z,73.39
2023-02-19T16:57:22.710Z,73.37
2023-02-19T16:59:51.249Z,72.99
2023-02-19T17:02:23.402Z,73.30
2023-02-19T17:04:55.273Z,73.88
2023-02-19T17:07:27.376Z,73.72
2023-02-19T17:09:55.896Z,74.26
2023-02-19T17:12:24.561Z,74.77
2023-02-19T17:14:52.960Z,74.49
2023-02-19T17:17:21.401Z,74.76
2023-02-19T17:19:49.882Z,75.08
2023-02-19T17:22:18.408Z,74.41
2023-02-19T17:24:48.343Z,75.63
2023-02-19T17:27:17.823Z,75.26
2023-02-19T17:29:46.462Z,75.20
2023-02-19T17:32:15.373Z,75.57
2023-02-19T17:34:43.890Z,75.78
2023-02-19T17:37:12.442Z,75.78
2023-02-19T17:39:40.997Z,75.99
2023-02-19T17:42:10.945Z,76.71
2023-02-19T17:44:39.768Z,76.59
2023-02-19T17:47:08.267Z,76.19
2023-02-19T17:49:36.973Z,76.64
2023-02-19T17:52:05.987Z,76.21
2023-02-19T17:54:34.639Z,76.44
2023-02-19T17:57:03.591Z,76.71
2023-02-19T17:59:33.772Z,76.84
2023-02-19T18:02:03.230Z,77.05
2023-02-19T18:04:32.020Z,77.63
2023-02-19T18:07:00.993Z,77.34
2023-02-19T18:09:29.794Z,77.94
2023-02-19T18:11:58.538Z,78.02
2023-02-19T18:14:27.049Z,78.75
2023-02-19T18:16:57.241Z,78.16
2023-02-19T18:19:26.030Z,78.63
2023-02-19T18:21:54.790Z,78.27
2023-02-19T18:24:23.522Z,79.02
2023-02-19T18:26:52.238Z,78.45
2023-02-19T18:29:21.866Z,79.51
2023-02-19T18:31:50.633Z,79.54
2023-02-19T18:34:20.929Z,79.72
2023-02-19T18:36:50.586Z,79.58
2023-02-19T18:39:19.174Z,79.53
2023-02-19T18:41:48.913Z,79.30
2023-02-19T18:44:21.751Z,79.00
2023-02-19T18:46:50.955Z,79.58
2023-02-19T18:49:20.899Z,79.86
2023-02-19T18:51:49.242Z,79.61
2023-02-19T18:54:17.813Z,80.03
2023-02-19T18:56:48.138Z,80.58
2023-02-19T18:59:16.889Z,80.62
2023-02-19T19:01:45.646Z,80.30
2023-02-19T19:04:14.542Z,80.66
2023-02-19T19:06:47.031Z,80.59
2023-02-19T19:09:16.077Z,80.05
2023-02-19T19:11:47.597Z,80.30
2023-02-19T19:14:16.149Z,80.01
2023-02-19T19:16:44.844Z,80.46
2023-02-19T19:19:14.768Z,80.16
2023-02-19T19:21:45.050Z,80.06
2023-02-19T19:24:13.984Z,80.84
2023-02-19T19:26:45.837Z,80.50
2023-02-19T19:29:16.091Z,80.62
2023-02-19T19:31:45.095Z,80.37
2023-02-19T19:34:14.383Z,80.26
2023-02-19T19:36:44.794Z,80.55
2023-02-19T19:39:13.992Z,80.50
2023-02-19T19:41:43.096Z,80.52
2023-02-19T19:44:11.643Z,80.09
2023-02-19T19:46:44.392Z,80.11
2023-02-19T19:49:13.799Z,79.77
2023-02-19T19:51:42.360Z,79.49
2023-02-19T19:54:13.170Z,79.57
2023-02-19T19:56:42.944Z,79.86
2023-02-19T19:59:12.338Z,79.50
2023-02-19T20:01:48.056Z,80.04
2023-02-19T20:04:16.920Z,79.41
2023-02-19T20:06:45.639Z,79.47
2023-02-19T20:09:17.123Z,79.63
2023-02-19T20:11:47.277Z,79.45
2023-02-19T20:14:16.287Z,79.33
2023-02-19T20:16:47.749Z,79.57
2023-02-19T20:19:17.170Z,79.60
2023-02-19T20:21:46.285Z,80.02
2023-02-19T20:24:17.470Z,79.80
2023-02-19T20:26:46.723Z,79.54
2023-02-19T20:29:15.457Z,79.44
2023-02-19T20:31:49.451Z,79.41
2023-02-19T20:34:19.551Z,79.80
2023-02-19T20:36:49.799Z,79.85
2023-02-19T20:39:21.131Z,80.29
2023-02-19T20:41:51.510Z,79.92
2023-02-19T20:44:20.530Z,80.06
2023-02-19T20:46:50.990Z,80.46
2023-02-19T20:49:22.391Z,80.37
2023-02-19T20:51:53.975Z,80.94
2023-02-19T20:54:26.505Z,81.27
2023-02-19T20:56:57.528Z,81.12
2023-02-19T20:59:30.503Z,81.16
2023-02-19T21:01:59.905Z,81.18
2023-02-19T21:04:28.593Z,81.68
2023-02-19T21:06:57.565Z,82.04
2023-02-19T21:09:27.586Z,81.91
2023-02-19T21:11:56.077Z,82.17
2023-02-19T21:14:26.539Z,81.82
2023-02-19T21:16:55.325Z,82.12
2023-02-19T21:19:23.832Z,82.30
2023-02-19T21:21:52.424Z,82.08
2023-02-19T21:24:21.008Z,82.65
2023-02-19T21:26:51.094Z,81.90
2023-02-19T21:29:22.268Z,82.13
2023-02-19T21:31:52.544Z,81.21
2023-02-19T21:34:24.028Z,81.51
2023-02-19T21:36:52.696Z,81.43
2023-02-19T21:39:23.686Z,81.43
2023-02-19T21:41:53.831Z,81.03
2023-02-19T21:44:22.639Z,81.11
2023-02-19T21:46:51.275Z,81.84
2023-02-19T21:49:19.917Z,81.78
2023-02-19T21:51:49.612Z,81.91
2023-02-19T21:54:21.010Z,81.64
2023-02-19T21:56:49.762Z,81.57
2023-02-19T21:59:20.633Z,81.92
2023-02-19T22:01:50.519Z,82.29
2023-02-19T22:04:21.698Z,82.39
2023-02-19T22:06:50.199Z,82.90
2023-02-19T22:09:21.054Z,82.65
2023-02-19T22:11:49.657Z,82.84
2023-02-19T22:14:19.688Z,82.67
2023-02-19T22:16:48.157Z,82.80
2023-02-19T22:19:16.696Z,83.17
2023-02-19T22:21:46.031Z,82.77
2023-02-19T22:24:19.905Z,82.62
2023-02-19T22:26:50.519Z,82.87
2023-02-19T22:29:20.423Z,82.93
2023-02-19T22:31:49.225Z,83.22
2023-02-19T22:34:18.262Z,83.13
2023-02-19T22:36:46.956Z,83.18
2023-02-19T22:39:20.433Z,83.16
2023-02-19T22:41:49.414Z,83.02
2023-02-19T22:44:18.548Z,83.69
2023-02-19T22:46:50.650Z,83.10
2023-02-19T22:49:19.888Z,83.55
2023-02-19T22:51:55.778Z,83.32
2023-02-19T22:54:26.876Z,83.19
2023-02-19T22:56:56.205Z,82.91
2023-02-19T22:59:24.805Z,83.32
2023-02-19T23:01:54.678Z,83.42
2023-02-19T23:04:25.011Z,83.32
2023-02-19T23:06:53.651Z,83.37
2023-02-19T23:09:25.365Z,84.04
2023-02-19T23:11:54.809Z,83.89
2023-02-19T23:14:24.261Z,84.16
2023-02-19T23:16:54.378Z,84.01
2023-02-19T23:19:22.819Z,83.51
2023-02-19T23:21:51.550Z,83.70
2023-02-19T23:24:20.158Z,83.72
2023-02-19T23:26:50.241Z,83.95
2023-02-19T23:29:19.286Z,83.91
2023-02-19T23:31:48.077Z,83.69
2023-02-19T23:34:19.420Z,83.75
2023-02-19T23:36:49.628Z,83.77
2023-02-19T23:39:20.345Z,83.70
2023-02-19T23:41:50.162Z,83.87
2023-02-19T23:44:18.977Z,83.57
2023-02-19T23:46:47.738Z,83.89
2023-02-19T23:49:16.229Z,83.55
2023-02-19T23:51:46.187Z,83.67
2023-02-19T23:54:14.861Z,83.31
2023-02-19T23:56:43.313Z,82.81
2023-02-19T23:59:11.786Z,83.05
